Hinchcliff, Mississippi
Current Conditions -  °F | °C
As of 8:35 PM on Saturday 22 Nov 2014 (Local Time) from KCKM Reporting Station
Clear Clear  
Wind Chill: 57°   Ceiling: Unl
Heat Index: 57°   Visibility: 10mi
Dew Point: 50°   Wind: 8mph
Humidity: 77%   Direction: 110°ESE
Pressure: 30.01"   Gusts: NA
Location:  34.2858°N, 90.309°W
Report Text: KCKM 230235Z AUTO 11007KT 10SM CLR 14/10 A3001 RMK AO1
Loading
Personal Weather Stations






























Interactive Weather Map New forecast layout! Learn more

10-Day Weather Forecast

Advertisements
Track Severe Weather on mobile